Duluth, MN

2:41 AM CST on November 29, 2014 (GMT -0600)
Duluth Sky Harbor | Change Station
CLOSE
Current Station
Airport
Location: Duluth Sky Harbor,
Elevation: 610 ft
Nearby Weather Stations

Elev 610 ft 46.72 °N, 92.04 °W | Updated 8 minutes ago

Overcast
Overcast
21 °F
Feels Like 21 °F
N
0
Wind Variable Wind from North

Today
High -- | Low -- °F
--% Chance of Precip.
Yesterday
High -- | Low -- °F
Precip. -- in
7:30 AM 4:22 PM
Waxing Crescent, 49% visible
Pressure 29.66 in
Visibility 10.0 miles
Clouds Scattered Clouds 2200 ft
Mostly Cloudy 10000 ft
Dew Point 18 °F
Humidity 86%
Rainfall 0.00 in
Snow Depth Not available.
UV 0 out of 12
Pollen .10 out of 12
Air Quality Not available.
Flu Activity Not available.
METAR KDYT 290833Z AUTO 00000KT 10SM SCT022 BKN100 M06/M08 A2966 RMK AO2

More Conditions Fewer Conditions

Pressure 29.66 in
Visibility 10.0 miles
Clouds Scattered Clouds 2200 ft
Mostly Cloudy 10000 ft
Dew Point 18 °F
Humidity 86%
Rainfall 0.00 in
Snow Depth Not available.
UV 0 out of 12
Pollen .10 out of 12
Air Quality Not available.
Flu Activity Not available.
METAR KDYT 290833Z AUTO 00000KT 10SM SCT022 BKN100 M06/M08 A2966 RMK AO2

More Conditions Fewer Conditions

10-Day Weather Forecast

Almanac

Astronomy

Nov. 29, 2014 Rise Set
Actual Time
Civil Twilight
Nautical Twilight
Astronomical Twilight
Moon
Length of Visible Light
Length of Day
Tomorrow will be .
, % of the Moon is Illuminated

Today's Extremes

State Highs State Lows

Community

WunderPhotos

Upload Photos

1,774,442 photos uploaded!

WunderBlogs® & News

Nearby

Air Quality

  Air Quality AQ Index Pollutant
Not available.

Snow Depth

Station Depth Elevation

Earthquake Activity

City Distance Mag. Time & Date
Minimum magnitude displayed is 2.5.

Coastal Water Temperatures

Place Temperature

Nearby Weather Stations